Bethel, AK

12:08 PM AKST on December 18, 2014 (GMT -0900)
Kwethluk AP, Kwethluk, AK | Change Station
CLOSE
Current Station
Airport
Location: Kwethluk AP, Kwethluk, AK,
Elevation: 26 ft
Nearby Weather Stations

Elev 26 ft 60.79 °N, 161.44 °W | Updated 12 minutes ago

Scattered Clouds
Scattered Clouds
19 °F
Feels Like 12 °F
N
5
Wind Variable Wind from NE

Today
High -- | Low -- °F
--% Chance of Precip.
Yesterday
High -- | Low -- °F
Precip. -- in
10:54 AM 4:30 PM
Waning Crescent, 12% visible
Pressure 29.40 in
Visibility 10.0 miles
Clouds Scattered Clouds 11000 ft
Windchill 12 °F
Dew Point 17 °F
Humidity 92%
Rainfall 0.00 in
Snow Depth Not available.
UV 0 out of 12
Pollen Not available.
Air Quality Not available.
Flu Activity Not available.
METAR PFKW 182056Z AUTO 04004KT 10SM SCT110 M07/M08 A2940 RMK AO2 SLP956 T10721083 56010 FZRANO

More Conditions Fewer Conditions

Pressure 29.40 in
Visibility 10.0 miles
Clouds Scattered Clouds 11000 ft
Windchill 12 °F
Dew Point 17 °F
Humidity 92%
Rainfall 0.00 in
Snow Depth Not available.
UV 0 out of 12
Pollen Not available.
Air Quality Not available.
Flu Activity Not available.
METAR PFKW 182056Z AUTO 04004KT 10SM SCT110 M07/M08 A2940 RMK AO2 SLP956 T10721083 56010 FZRANO

More Conditions Fewer Conditions

10-Day Weather Forecast

Almanac

Astronomy

Dec. 18, 2014 Rise Set
Actual Time
Civil Twilight
Nautical Twilight
Astronomical Twilight
Moon
Length of Visible Light
Length of Day
Tomorrow will be .
, % of the Moon is Illuminated

Today's Extremes

State Highs State Lows

Community

WunderPhotos

Upload Photos

1,778,997 photos uploaded!

WunderBlogs® & News

Nearby

Air Quality

  Air Quality AQ Index Pollutant
Not available.

Snow Depth

Station Depth Elevation

Earthquake Activity

City Distance Mag. Time & Date
Minimum magnitude displayed is 2.5.

Coastal Water Temperatures

Place Temperature

Nearby Weather Stations